Time;durP1;ratioP1;P1;durP2;ratioP2;P2;SDS_P1;SDS_P2;PMS_P1;PMS_P2;Temp;Humidity;BMP_temperature;BMP_pressure;BME280_temperature;BME280_humidity;BME280_pressure;Samples;Min_cycle;Max_cycle;Signal;HPM_P1;HPM_P2
2022/07/09 00:01:41;;;;;;;2.67;2.33;;;;;;;;;;4920683;29;20047;-70
2022/07/09 00:04:08;;;;;;;3.10;2.58;;;;;;;;;;4936318;29;20066;-69
2022/07/09 00:06:34;;;;;;;5.32;2.60;;;;;;;;;;4936142;29;20056;-69
2022/07/09 00:09:01;;;;;;;6.43;2.80;;;;;;;;;;4935847;29;20522;-69
2022/07/09 00:11:28;;;;;;;7.97;2.92;;;;;;;;;;4934887;29;20051;-69
2022/07/09 00:13:54;;;;;;;4.05;3.05;;;;;;;;;;4935685;29;20060;-70
2022/07/09 00:16:21;;;;;;;7.18;3.30;;;;;;;;;;4935718;29;20052;-69
2022/07/09 00:18:47;;;;;;;6.13;2.65;;;;;;;;;;4935472;29;20047;-69
2022/07/09 00:21:14;;;;;;;4.90;2.65;;;;;;;;;;4936028;29;20495;-69
2022/07/09 00:23:41;;;;;;;3.55;3.20;;;;;;;;;;4935814;29;20047;-69
2022/07/09 00:26:07;;;;;;;4.75;2.75;;;;;;;;;;4929927;29;20392;-69
2022/07/09 00:28:34;;;;;;;4.57;2.80;;;;;;;;;;4916610;29;20100;-69
2022/07/09 00:31:01;;;;;;;7.95;3.80;;;;;;;;;;4915379;29;20048;-69
2022/07/09 00:33:28;;;;;;;6.60;2.50;;;;;;;;;;4915568;29;20107;-69
2022/07/09 00:35:54;;;;;;;5.38;3.03;;;;;;;;;;4916446;29;20500;-68
2022/07/09 00:38:21;;;;;;;4.85;3.35;;;;;;;;;;4916542;29;20051;-69
2022/07/09 00:40:47;;;;;;;5.40;2.90;;;;;;;;;;4916616;29;20059;-69
2022/07/09 00:43:19;;;;;;;5.47;3.03;;;;;;;;;;4916388;29;20111;-70
2022/07/09 00:45:46;;;;;;;3.90;3.08;;;;;;;;;;4915727;29;20056;-69
2022/07/09 00:48:13;;;;;;;5.18;3.40;;;;;;;;;;4916365;29;20052;-69
2022/07/09 00:50:41;;;;;;;4.85;3.22;;;;;;;;;;4923335;29;20048;-70
2022/07/09 00:53:18;;;;;;;5.55;2.88;;;;;;;;;;4934039;29;20427;-69
2022/07/09 00:55:45;;;;;;;3.67;2.67;;;;;;;;;;4934006;29;20062;-69
2022/07/09 00:58:12;;;;;;;4.93;2.90;;;;;;;;;;4933732;29;20051;-69
2022/07/09 01:00:38;;;;;;;9.18;3.75;;;;;;;;;;4933926;29;20510;-69
2022/07/09 01:03:05;;;;;;;7.75;3.13;;;;;;;;;;4923677;29;20153;-69
2022/07/09 01:05:35;;;;;;;5.22;3.83;;;;;;;;;;4915962;29;20055;-71
2022/07/09 01:08:05;;;;;;;4.90;3.00;;;;;;;;;;4916346;29;20083;-69
2022/07/09 01:10:33;;;;;;;5.78;3.17;;;;;;;;;;4916031;29;20419;-69
2022/07/09 01:13:00;;;;;;;4.72;3.25;;;;;;;;;;4916154;29;20062;-68
2022/07/09 01:15:26;;;;;;;4.55;2.97;;;;;;;;;;4928288;29;20048;-70
2022/07/09 01:17:55;;;;;;;5.40;3.25;;;;;;;;;;4934589;29;20062;-69
2022/07/09 01:20:23;;;;;;;5.07;3.38;;;;;;;;;;4934852;29;20052;-68
2022/07/09 01:22:49;;;;;;;7.18;3.22;;;;;;;;;;4934815;29;20052;-69
2022/07/09 01:25:17;;;;;;;3.30;3.00;;;;;;;;;;4934574;29;20059;-69
2022/07/09 01:27:45;;;;;;;5.90;3.05;;;;;;;;;;4934946;29;20055;-68
2022/07/09 01:30:26;;;;;;;3.30;3.00;;;;;;;;;;4934985;29;20423;-69
2022/07/09 01:32:53;;;;;;;5.78;3.30;;;;;;;;;;4933589;29;20415;-69
2022/07/09 01:35:21;;;;;;;5.80;3.30;;;;;;;;;;4922707;29;20056;-68
2022/07/09 01:37:47;;;;;;;3.55;3.25;;;;;;;;;;4915480;29;20058;-69
2022/07/09 01:40:14;;;;;;;5.32;3.30;;;;;;;;;;4915757;29;20063;-68
2022/07/09 01:42:41;;;;;;;6.97;3.50;;;;;;;;;;4915745;29;20055;-69
2022/07/09 01:45:08;;;;;;;5.63;3.72;;;;;;;;;;4925401;29;20143;-69
2022/07/09 01:47:35;;;;;;;5.18;3.78;;;;;;;;;;4934524;29;20055;-69
2022/07/09 01:50:01;;;;;;;5.88;3.63;;;;;;;;;;4934210;29;20048;-70
2022/07/09 01:52:28;;;;;;;5.47;3.85;;;;;;;;;;4934432;29;20447;-70
2022/07/09 01:54:55;;;;;;;7.30;3.67;;;;;;;;;;4934686;29;20064;-69
2022/07/09 01:57:21;;;;;;;5.20;3.47;;;;;;;;;;4937440;29;20051;-69
2022/07/09 01:59:48;;;;;;;5.80;3.08;;;;;;;;;;4938284;29;20075;-70
2022/07/09 02:02:15;;;;;;;5.70;3.80;;;;;;;;;;4938436;29;20052;-69
2022/07/09 02:04:41;;;;;;;6.50;3.78;;;;;;;;;;4938093;29;20062;-71
2022/07/09 02:07:08;;;;;;;7.38;3.92;;;;;;;;;;4938122;29;20051;-69
2022/07/09 02:09:35;;;;;;;6.00;3.30;;;;;;;;;;4938271;29;20064;-69
2022/07/09 02:12:02;;;;;;;6.47;3.33;;;;;;;;;;4938541;29;20052;-69
2022/07/09 02:14:28;;;;;;;5.35;3.50;;;;;;;;;;4938254;29;20052;-69
2022/07/09 02:16:55;;;;;;;6.20;3.30;;;;;;;;;;4937890;29;20059;-68
2022/07/09 02:19:22;;;;;;;4.88;3.20;;;;;;;;;;4937775;29;20056;-69
2022/07/09 02:21:48;;;;;;;5.28;3.50;;;;;;;;;;4938051;29;20506;-69
2022/07/09 02:24:15;;;;;;;7.25;3.75;;;;;;;;;;4935832;29;20066;-69
2022/07/09 02:26:42;;;;;;;6.85;3.47;;;;;;;;;;4918915;29;20052;-69
2022/07/09 02:29:08;;;;;;;4.90;3.30;;;;;;;;;;4918751;29;20072;-70
2022/07/09 02:31:35;;;;;;;6.80;3.67;;;;;;;;;;4918836;29;20634;-69
2022/07/09 02:34:02;;;;;;;5.13;3.70;;;;;;;;;;4918592;29;20526;-69
2022/07/09 02:36:28;;;;;;;5.50;3.30;;;;;;;;;;4919133;29;20052;-69
2022/07/09 02:38:55;;;;;;;8.15;3.50;;;;;;;;;;4918793;29;20056;-69
2022/07/09 02:41:22;;;;;;;8.10;3.42;;;;;;;;;;4918762;29;20052;-69
2022/07/09 02:43:48;;;;;;;4.93;3.97;;;;;;;;;;4918652;29;20052;-69
2022/07/09 02:46:15;;;;;;;4.85;3.60;;;;;;;;;;4935628;29;20048;-69
2022/07/09 02:48:42;;;;;;;7.03;3.42;;;;;;;;;;4937717;29;20083;-69
2022/07/09 02:51:08;;;;;;;5.72;3.75;;;;;;;;;;4937411;29;20062;-69
2022/07/09 02:53:35;;;;;;;5.15;3.55;;;;;;;;;;4937315;29;20067;-69
2022/07/09 02:56:02;;;;;;;6.93;4.05;;;;;;;;;;4922546;29;20052;-69
2022/07/09 02:58:28;;;;;;;5.78;4.47;;;;;;;;;;4918153;29;20056;-69
2022/07/09 03:00:55;;;;;;;5.45;4.15;;;;;;;;;;4918710;29;20434;-69
2022/07/09 03:03:23;;;;;;;5.80;3.58;;;;;;;;;;4918467;29;20059;-69
2022/07/09 03:05:50;;;;;;;5.10;3.53;;;;;;;;;;4918386;29;20048;-69
2022/07/09 03:08:17;;;;;;;7.90;3.50;;;;;;;;;;4917629;29;20052;-69
2022/07/09 03:10:44;;;;;;;7.60;3.58;;;;;;;;;;4918198;29;20541;-69
2022/07/09 03:13:11;;;;;;;4.22;3.08;;;;;;;;;;4918293;29;20056;-69
2022/07/09 03:15:38;;;;;;;5.55;3.40;;;;;;;;;;4929250;29;20546;-70
2022/07/09 03:18:08;;;;;;;4.72;3.80;;;;;;;;;;4937522;29;20052;-68
2022/07/09 03:20:35;;;;;;;4.97;3.30;;;;;;;;;;4938077;29;20052;-69
2022/07/09 03:23:03;;;;;;;7.68;3.80;;;;;;;;;;4937792;29;20052;-69
2022/07/09 03:25:30;;;;;;;4.70;3.60;;;;;;;;;;4926817;29;20171;-68
2022/07/09 03:27:57;;;;;;;8.23;3.75;;;;;;;;;;4918031;29;20051;-69
2022/07/09 03:30:24;;;;;;;5.90;4.10;;;;;;;;;;4917975;29;20056;-69
2022/07/09 03:32:51;;;;;;;5.13;3.70;;;;;;;;;;4918263;29;20051;-69
2022/07/09 03:35:17;;;;;;;6.70;3.35;;;;;;;;;;4918075;29;20055;-68
2022/07/09 03:37:44;;;;;;;3.63;3.20;;;;;;;;;;4918482;29;20052;-69
2022/07/09 03:40:11;;;;;;;4.38;3.60;;;;;;;;;;4918648;29;20056;-69
2022/07/09 03:42:38;;;;;;;6.63;3.60;;;;;;;;;;4918744;29;20126;-69
2022/07/09 03:45:05;;;;;;;4.00;3.42;;;;;;;;;;4920728;29;20056;-69
2022/07/09 03:47:31;;;;;;;5.03;3.30;;;;;;;;;;4937101;29;20052;-68
2022/07/09 03:49:58;;;;;;;7.05;4.22;;;;;;;;;;4936399;29;20515;-69
2022/07/09 03:52:25;;;;;;;7.78;4.68;;;;;;;;;;4936580;29;20047;-69
2022/07/09 03:54:51;;;;;;;5.03;3.53;;;;;;;;;;4931413;29;20052;-69
2022/07/09 03:57:18;;;;;;;5.65;3.67;;;;;;;;;;4917259;29;20068;-69
2022/07/09 03:59:45;;;;;;;6.00;3.47;;;;;;;;;;4917427;29;20055;-68
2022/07/09 04:02:11;;;;;;;6.85;3.85;;;;;;;;;;4922230;29;20047;-69
2022/07/09 04:04:40;;;;;;;4.43;3.55;;;;;;;;;;4935643;29;20056;-68
2022/07/09 04:07:07;;;;;;;5.78;4.00;;;;;;;;;;4928267;29;20429;-68
2022/07/09 04:09:33;;;;;;;4.70;3.78;;;;;;;;;;4926619;29;20134;-69
2022/07/09 04:12:00;;;;;;;7.68;4.00;;;;;;;;;;4927270;29;20059;-69
2022/07/09 04:14:27;;;;;;;8.07;4.50;;;;;;;;;;4925286;29;20054;-68
2022/07/09 04:16:53;;;;;;;7.45;3.78;;;;;;;;;;4927886;29;20047;-69
2022/07/09 04:19:20;;;;;;;6.40;4.10;;;;;;;;;;4926706;29;20052;-69
2022/07/09 04:21:47;;;;;;;4.22;3.40;;;;;;;;;;4932278;29;20066;-69
2022/07/09 04:24:15;;;;;;;6.72;4.50;;;;;;;;;;4935758;29;20510;-69
2022/07/09 04:26:43;;;;;;;6.35;3.67;;;;;;;;;;4935954;29;20048;-69
2022/07/09 04:29:10;;;;;;;7.18;4.20;;;;;;;;;;4935813;29;20058;-68
2022/07/09 04:31:37;;;;;;;7.75;3.92;;;;;;;;;;4935926;29;20130;-69
2022/07/09 04:34:04;;;;;;;6.32;3.80;;;;;;;;;;4934634;29;20058;-69
2022/07/09 04:36:31;;;;;;;5.75;3.80;;;;;;;;;;4935604;29;20052;-69
2022/07/09 04:38:57;;;;;;;6.93;3.78;;;;;;;;;;4935364;29;20047;-69
2022/07/09 04:41:24;;;;;;;7.13;4.32;;;;;;;;;;4935669;29;20066;-69
2022/07/09 04:43:51;;;;;;;5.53;3.70;;;;;;;;;;4935316;29;20070;-69
2022/07/09 04:46:17;;;;;;;6.07;3.85;;;;;;;;;;4936017;29;20048;-69
2022/07/09 04:48:44;;;;;;;5.85;4.00;;;;;;;;;;4935497;29;20052;-69
2022/07/09 04:51:11;;;;;;;5.18;3.70;;;;;;;;;;4935999;29;20499;-69
2022/07/09 04:53:37;;;;;;;6.55;3.70;;;;;;;;;;4935782;29;20498;-69
2022/07/09 04:56:04;;;;;;;4.95;3.63;;;;;;;;;;4935394;29;20509;-69
2022/07/09 04:58:31;;;;;;;5.93;3.75;;;;;;;;;;4935367;29;20067;-69
2022/07/09 05:00:59;;;;;;;5.47;4.47;;;;;;;;;;4935356;29;20565;-69
2022/07/09 05:03:26;;;;;;;7.18;3.88;;;;;;;;;;4936274;29;20116;-69
2022/07/09 05:05:53;;;;;;;5.57;4.10;;;;;;;;;;4935612;29;20591;-69
2022/07/09 05:08:19;;;;;;;5.55;3.28;;;;;;;;;;4935473;29;20071;-69
2022/07/09 05:10:46;;;;;;;6.15;4.15;;;;;;;;;;4935277;29;20058;-69
2022/07/09 05:13:13;;;;;;;8.50;4.15;;;;;;;;;;4934167;29;20081;-70
2022/07/09 05:15:39;;;;;;;4.93;3.65;;;;;;;;;;4934839;29;20060;-69
2022/07/09 05:18:06;;;;;;;6.75;3.85;;;;;;;;;;4934854;29;20140;-69
2022/07/09 05:20:33;;;;;;;3.58;3.28;;;;;;;;;;4928859;29;20063;-69
2022/07/09 05:22:59;;;;;;;6.20;3.97;;;;;;;;;;4927650;29;20063;-69
2022/07/09 05:25:26;;;;;;;5.97;4.13;;;;;;;;;;4934887;29;20062;-68
2022/07/09 05:27:53;;;;;;;8.15;4.22;;;;;;;;;;4935319;29;20055;-69
2022/07/09 05:30:19;;;;;;;4.53;3.55;;;;;;;;;;4935210;29;20056;-69
2022/07/09 05:32:46;;;;;;;6.88;4.07;;;;;;;;;;4935770;29;20167;-69
2022/07/09 05:35:13;;;;;;;6.25;4.70;;;;;;;;;;4936700;29;20063;-69
2022/07/09 05:37:43;;;;;;;5.95;4.03;;;;;;;;;;4937034;29;20063;-69
2022/07/09 05:40:10;;;;;;;5.05;3.70;;;;;;;;;;4937002;29;20155;-69
2022/07/09 05:42:38;;;;;;;4.93;3.70;;;;;;;;;;4936281;29;20058;-69
2022/07/09 05:45:05;;;;;;;8.80;3.85;;;;;;;;;;4936016;29;20094;-68
2022/07/09 05:47:32;;;;;;;3.67;2.97;;;;;;;;;;4936241;29;20071;-69
2022/07/09 05:49:59;;;;;;;5.57;3.47;;;;;;;;;;4937347;29;20051;-68
2022/07/09 05:52:25;;;;;;;6.47;3.80;;;;;;;;;;4936744;29;20077;-69
2022/07/09 05:54:52;;;;;;;8.27;3.47;;;;;;;;;;4938090;29;20052;-68
2022/07/09 05:57:18;;;;;;;5.40;3.72;;;;;;;;;;4923114;29;20510;-67
2022/07/09 05:59:45;;;;;;;5.78;3.30;;;;;;;;;;4913770;29;20056;-67
2022/07/09 06:02:12;;;;;;;3.80;3.00;;;;;;;;;;4914018;29;20064;-67
2022/07/09 06:04:38;;;;;;;6.50;3.20;;;;;;;;;;4914524;29;20350;-66
2022/07/09 06:07:05;;;;;;;3.95;3.42;;;;;;;;;;4914194;29;20059;-67
2022/07/09 06:09:32;;;;;;;6.32;2.70;;;;;;;;;;4913262;29;20052;-67
2022/07/09 06:11:59;;;;;;;9.93;3.28;;;;;;;;;;4913731;29;20054;-66
2022/07/09 06:14:25;;;;;;;4.28;3.05;;;;;;;;;;4913569;29;20056;-66
2022/07/09 06:16:55;;;;;;;8.10;2.95;;;;;;;;;;4913245;29;20492;-66
2022/07/09 06:19:22;;;;;;;3.78;2.80;;;;;;;;;;4913428;29;20100;-66
2022/07/09 06:21:49;;;;;;;6.10;2.88;;;;;;;;;;4924303;29;20055;-66
2022/07/09 06:24:16;;;;;;;5.00;2.60;;;;;;;;;;4932297;29;20048;-66
2022/07/09 06:26:42;;;;;;;5.63;2.63;;;;;;;;;;4932379;29;20062;-66
2022/07/09 06:29:09;;;;;;;7.53;2.70;;;;;;;;;;4932183;29;20062;-66
2022/07/09 06:31:36;;;;;;;2.50;2.25;;;;;;;;;;4932155;29;20051;-66
2022/07/09 06:34:02;;;;;;;7.22;3.20;;;;;;;;;;4918728;29;20135;-66
2022/07/09 06:36:29;;;;;;;4.03;2.60;;;;;;;;;;4912754;29;20158;-66
2022/07/09 06:41:41;;;;;;;4.57;2.60;;;;;;;;;;4913251;29;20048;-66
2022/07/09 06:44:07;;;;;;;7.25;3.05;;;;;;;;;;4916098;29;20066;-66
2022/07/09 06:46:35;;;;;;;4.35;2.33;;;;;;;;;;4933178;29;20054;-66
2022/07/09 06:49:02;;;;;;;3.38;2.30;;;;;;;;;;4935298;29;20703;-66
2022/07/09 06:51:29;;;;;;;4.70;2.60;;;;;;;;;;4935680;29;20608;-66
2022/07/09 06:53:56;;;;;;;8.55;2.53;;;;;;;;;;4935386;29;20062;-66
2022/07/09 06:56:22;;;;;;;4.43;3.08;;;;;;;;;;4935248;29;20048;-67
2022/07/09 06:58:49;;;;;;;7.05;2.70;;;;;;;;;;4935345;29;20155;-66
2022/07/09 07:01:16;;;;;;;5.97;2.70;;;;;;;;;;4935005;29;20455;-66
2022/07/09 07:03:42;;;;;;;3.90;3.08;;;;;;;;;;4935178;29;20582;-65
2022/07/09 07:06:09;;;;;;;6.38;2.53;;;;;;;;;;4935214;29;20083;-65
2022/07/09 07:08:36;;;;;;;3.33;1.65;;;;;;;;;;4935132;29;20048;-66
2022/07/09 07:11:03;;;;;;;8.68;2.25;;;;;;;;;;4935143;29;20052;-65
2022/07/09 07:13:30;;;;;;;3.95;1.75;;;;;;;;;;4935150;29;20068;-66
2022/07/09 07:15:57;;;;;;;5.78;2.40;;;;;;;;;;4934725;29;20503;-66
2022/07/09 07:18:24;;;;;;;5.60;1.77;;;;;;;;;;4934890;29;20059;-66
2022/07/09 07:20:51;;;;;;;3.17;1.90;;;;;;;;;;4930850;29;20063;-66
2022/07/09 07:23:17;;;;;;;5.70;1.70;;;;;;;;;;4915992;29;20063;-65
2022/07/09 07:25:44;;;;;;;2.70;1.45;;;;;;;;;;4915764;29;20523;-65
2022/07/09 07:28:11;;;;;;;3.13;1.98;;;;;;;;;;4924040;29;20048;-65
2022/07/09 07:30:37;;;;;;;4.15;1.98;;;;;;;;;;4934727;29;20059;-65
2022/07/09 07:33:04;;;;;;;4.75;1.85;;;;;;;;;;4934895;29;20062;-66
2022/07/09 07:35:31;;;;;;;4.80;1.50;;;;;;;;;;4934763;29;20060;-66
2022/07/09 07:37:59;;;;;;;6.03;1.83;;;;;;;;;;4934414;29;20064;-67
2022/07/09 07:40:26;;;;;;;4.60;1.85;;;;;;;;;;4913291;29;20167;-67
2022/07/09 07:42:52;;;;;;;5.70;2.42;;;;;;;;;;4920283;29;20070;-68
2022/07/09 07:45:19;;;;;;;7.28;2.08;;;;;;;;;;4924805;29;20079;-72
2022/07/09 07:47:46;;;;;;;5.93;2.10;;;;;;;;;;4924624;29;20126;-68
2022/07/09 07:50:13;;;;;;;3.95;1.50;;;;;;;;;;4922436;29;20221;-67
2022/07/09 07:52:39;;;;;;;4.43;1.85;;;;;;;;;;4919880;29;20052;-68
2022/07/09 07:55:12;;;;;;;;;;;;;;;;;;4918158;29;20086;-67
2022/07/09 07:57:39;;;;;;;3.72;1.67;;;;;;;;;;4917053;29;19923;-67
2022/07/09 08:00:06;;;;;;;1.98;1.20;;;;;;;;;;4917374;29;20052;-68
2022/07/09 08:02:34;;;;;;;4.93;1.50;;;;;;;;;;4917333;29;20063;-67
2022/07/09 08:05:01;;;;;;;4.05;1.70;;;;;;;;;;4917233;29;20048;-68
2022/07/09 08:07:28;;;;;;;4.20;1.60;;;;;;;;;;4924983;29;20054;-67
2022/07/09 08:09:54;;;;;;;4.45;1.92;;;;;;;;;;4934582;29;20078;-67
2022/07/09 08:12:21;;;;;;;3.40;1.45;;;;;;;;;;4933445;29;20069;-67
2022/07/09 08:14:47;;;;;;;5.00;1.88;;;;;;;;;;4934464;29;20055;-68
2022/07/09 08:17:14;;;;;;;4.30;1.63;;;;;;;;;;4934084;29;20052;-67
2022/07/09 08:19:41;;;;;;;3.38;1.40;;;;;;;;;;4925503;29;20051;-68
2022/07/09 08:22:07;;;;;;;2.15;1.13;;;;;;;;;;4915653;29;20051;-68
2022/07/09 08:24:34;;;;;;;2.17;1.35;;;;;;;;;;4916943;29;20062;-68
2022/07/09 08:27:01;;;;;;;2.63;1.40;;;;;;;;;;4917449;29;20050;-68
2022/07/09 08:29:27;;;;;;;3.33;1.45;;;;;;;;;;4916987;29;20071;-68
2022/07/09 08:31:54;;;;;;;3.33;1.60;;;;;;;;;;4916834;29;20066;-68
2022/07/09 08:34:21;;;;;;;3.72;1.77;;;;;;;;;;4916959;29;20107;-68
2022/07/09 08:36:48;;;;;;;2.95;1.65;;;;;;;;;;4917079;29;20053;-68
2022/07/09 08:39:14;;;;;;;3.53;1.65;;;;;;;;;;4916919;29;20059;-68
2022/07/09 08:41:42;;;;;;;4.60;1.23;;;;;;;;;;4916963;29;20052;-69
2022/07/09 08:44:12;;;;;;;2.13;1.00;;;;;;;;;;4916957;29;20423;-68
2022/07/09 08:46:39;;;;;;;4.18;1.27;;;;;;;;;;4917090;29;20488;-68
2022/07/09 08:49:07;;;;;;;3.72;1.83;;;;;;;;;;4917043;29;20134;-69
2022/07/09 08:51:35;;;;;;;4.32;1.45;;;;;;;;;;4915691;29;20055;-68
2022/07/09 08:54:01;;;;;;;6.20;1.40;;;;;;;;;;4916663;29;20048;-68
2022/07/09 08:56:28;;;;;;;4.07;1.10;;;;;;;;;;4929649;29;20055;-68
2022/07/09 08:58:54;;;;;;;5.40;1.45;;;;;;;;;;4935749;29;20052;-68
2022/07/09 09:01:21;;;;;;;2.22;1.00;;;;;;;;;;4934462;29;20051;-68
2022/07/09 09:03:48;;;;;;;2.03;0.75;;;;;;;;;;4935545;29;20534;-69
2022/07/09 09:06:15;;;;;;;3.15;1.48;;;;;;;;;;4935769;29;20051;-70
2022/07/09 09:08:43;;;;;;;4.53;1.42;;;;;;;;;;4936185;29;20517;-70
2022/07/09 09:11:28;;;;;;;2.70;1.25;;;;;;;;;;4935508;29;20056;-65
2022/07/09 09:13:55;;;;;;;3.95;1.10;;;;;;;;;;4925224;29;20051;-66
2022/07/09 09:16:22;;;;;;;2.70;1.17;;;;;;;;;;4915850;29;20062;-66
2022/07/09 09:18:51;;;;;;;2.88;0.95;;;;;;;;;;4915980;29;20052;-66
2022/07/09 09:21:22;;;;;;;2.60;0.95;;;;;;;;;;4929231;29;20066;-73
2022/07/09 09:23:59;;;;;;;4.47;1.20;;;;;;;;;;4928972;29;20048;-74
2022/07/09 09:26:26;;;;;;;3.25;0.95;;;;;;;;;;4916770;29;20131;-73
2022/07/09 09:28:56;;;;;;;3.00;2.35;;;;;;;;;;4921299;29;20492;-76
2022/07/09 09:31:36;;;;;;;4.78;1.85;;;;;;;;;;4923032;29;20110;-78
2022/07/09 09:34:06;;;;;;;2.17;1.15;;;;;;;;;;4899890;29;20067;-70
2022/07/09 09:36:40;;;;;;;1.55;0.80;;;;;;;;;;4923676;29;20056;-70
2022/07/09 09:39:18;;;;;;;4.05;1.17;;;;;;;;;;4925139;29;20083;-75
2022/07/09 09:41:52;;;;;;;2.15;1.13;;;;;;;;;;4897209;29;20055;-74
2022/07/09 09:44:29;;;;;;;2.72;0.88;;;;;;;;;;4921430;29;20052;-70
2022/07/09 09:46:57;;;;;;;1.63;0.93;;;;;;;;;;4923094;29;20043;-75
2022/07/09 09:49:24;;;;;;;2.17;0.77;;;;;;;;;;4918534;29;20530;-77
2022/07/09 09:51:55;;;;;;;3.55;1.05;;;;;;;;;;4921360;29;20051;-73
2022/07/09 09:54:22;;;;;;;2.13;1.00;;;;;;;;;;4926001;23;20063;-74
2022/07/09 09:56:49;;;;;;;2.50;1.42;;;;;;;;;;4886281;29;20056;-73
2022/07/09 09:59:16;;;;;;;2.03;0.98;;;;;;;;;;4887841;29;20088;-74
2022/07/09 10:01:44;;;;;;;4.22;1.67;;;;;;;;;;4894617;29;20053;-74
2022/07/09 10:04:14;;;;;;;2.88;1.00;;;;;;;;;;4905339;29;20048;-73
2022/07/09 10:06:42;;;;;;;2.78;1.00;;;;;;;;;;4896513;29;20056;-74
2022/07/09 10:09:11;;;;;;;5.70;1.95;;;;;;;;;;4900776;29;20500;-74
2022/07/09 10:11:43;;;;;;;4.22;2.53;;;;;;;;;;4880064;29;20060;-74
2022/07/09 10:14:28;;;;;;;2.40;1.02;;;;;;;;;;4888162;29;20131;-74
2022/07/09 10:16:55;;;;;;;2.20;1.15;;;;;;;;;;4904685;29;20056;-74
2022/07/09 10:19:26;;;;;;;2.60;1.00;;;;;;;;;;4882679;29;20052;-74
2022/07/09 10:21:54;;;;;;;1.70;1.02;;;;;;;;;;4881816;29;20055;-74
2022/07/09 10:24:28;;;;;;;2.80;1.20;;;;;;;;;;4891064;29;20068;-73
2022/07/09 10:27:08;;;;;;;2.03;0.95;;;;;;;;;;4881513;29;20095;-74
2022/07/09 10:29:37;;;;;;;3.85;0.90;;;;;;;;;;4906278;29;20083;-74
2022/07/09 10:32:04;;;;;;;2.42;1.05;;;;;;;;;;4889285;29;20642;-73
2022/07/09 10:34:50;;;;;;;2.60;1.08;;;;;;;;;;4892556;29;20139;-74
2022/07/09 10:37:18;;;;;;;1.83;0.90;;;;;;;;;;4892954;29;20052;-74
2022/07/09 10:39:54;;;;;;;1.50;0.95;;;;;;;;;;4888550;29;20548;-74
2022/07/09 10:42:23;;;;;;;1.85;0.90;;;;;;;;;;4908140;29;20056;-75
2022/07/09 10:44:51;;;;;;;2.10;1.10;;;;;;;;;;4898578;29;20048;-75
2022/07/09 10:47:18;;;;;;;2.88;1.10;;;;;;;;;;4904558;29;20093;-75
2022/07/09 10:49:44;;;;;;;2.67;1.00;;;;;;;;;;4866084;29;21037;-74
2022/07/09 10:52:11;;;;;;;2.47;0.85;;;;;;;;;;4907438;29;20052;-74
2022/07/09 10:54:48;;;;;;;1.77;0.70;;;;;;;;;;4907067;29;20060;-75
2022/07/09 10:57:14;;;;;;;1.20;0.95;;;;;;;;;;4874366;29;20481;-74
2022/07/09 10:59:45;;;;;;;2.10;1.10;;;;;;;;;;4884749;29;20080;-75
2022/07/09 11:02:22;;;;;;;1.15;0.70;;;;;;;;;;4881759;29;20055;-75
2022/07/09 11:04:52;;;;;;;1.77;1.00;;;;;;;;;;4916599;29;20104;-75
2022/07/09 11:07:21;;;;;;;2.25;0.70;;;;;;;;;;4881399;29;20132;-75
2022/07/09 11:09:48;;;;;;;2.65;1.25;;;;;;;;;;4875769;29;20091;-74
2022/07/09 11:12:21;;;;;;;1.45;0.80;;;;;;;;;;4909170;29;20480;-74
2022/07/09 11:14:49;;;;;;;1.98;0.77;;;;;;;;;;4890195;29;20079;-74
2022/07/09 11:17:21;;;;;;;3.17;0.95;;;;;;;;;;4876016;29;20140;-74
2022/07/09 11:19:49;;;;;;;;;;;;;;;;;;4885946;29;20092;-74
2022/07/09 11:22:16;;;;;;;2.83;0.80;;;;;;;;;;4900672;29;19923;-75
2022/07/09 11:24:42;;;;;;;1.90;0.80;;;;;;;;;;4891051;29;20084;-74
2022/07/09 11:27:09;;;;;;;1.30;0.70;;;;;;;;;;4907780;29;20572;-73
2022/07/09 11:29:36;;;;;;;2.78;0.80;;;;;;;;;;4905585;29;20218;-74
2022/07/09 11:32:04;;;;;;;2.95;0.70;;;;;;;;;;4892152;29;20058;-74
2022/07/09 11:34:30;;;;;;;2.08;0.90;;;;;;;;;;4868604;29;20092;-74
2022/07/09 11:36:58;;;;;;;1.52;0.90;;;;;;;;;;4903995;29;20504;-73
2022/07/09 11:39:30;;;;;;;1.55;0.63;;;;;;;;;;4867702;29;20569;-74
2022/07/09 11:41:58;;;;;;;1.58;0.73;;;;;;;;;;4893020;29;20111;-78
2022/07/09 11:44:29;;;;;;;2.40;0.80;;;;;;;;;;4888760;29;20103;-80
2022/07/09 11:47:09;;;;;;;2.00;0.80;;;;;;;;;;4891894;29;20032;-81
2022/07/09 11:49:41;;;;;;;1.63;0.90;;;;;;;;;;4913206;29;20476;-79
2022/07/09 11:52:18;;;;;;;2.42;1.35;;;;;;;;;;4914867;29;20084;-76
2022/07/09 11:55:06;;;;;;;2.25;0.85;;;;;;;;;;4872672;29;20053;-76
2022/07/09 11:57:34;;;;;;;1.38;0.82;;;;;;;;;;4868888;29;20134;-75
2022/07/09 12:00:19;;;;;;;4.00;0.95;;;;;;;;;;4895362;29;20505;-75
2022/07/09 12:02:46;;;;;;;2.58;0.80;;;;;;;;;;4884560;29;20056;-74
2022/07/09 12:05:14;;;;;;;1.42;0.85;;;;;;;;;;4892687;29;20091;-76
2022/07/09 12:07:41;;;;;;;2.65;1.20;;;;;;;;;;4877370;29;20059;-75
2022/07/09 12:10:09;;;;;;;2.63;1.13;;;;;;;;;;4892007;29;20060;-75
2022/07/09 12:12:37;;;;;;;1.13;0.50;;;;;;;;;;4908445;29;20087;-75
2022/07/09 12:15:04;;;;;;;2.28;1.05;;;;;;;;;;4883300;29;20088;-75
2022/07/09 12:17:34;;;;;;;1.55;0.52;;;;;;;;;;4889458;29;20052;-78
2022/07/09 12:20:06;;;;;;;2.15;0.77;;;;;;;;;;4910600;29;20059;-77
2022/07/09 12:22:33;;;;;;;2.45;1.13;;;;;;;;;;4905350;29;20402;-77
2022/07/09 12:25:01;;;;;;;2.65;0.90;;;;;;;;;;4906082;29;20516;-77
2022/07/09 12:27:27;;;;;;;3.72;1.13;;;;;;;;;;4892046;29;20057;-77
2022/07/09 12:29:54;;;;;;;1.65;0.98;;;;;;;;;;4908017;29;20056;-77
2022/07/09 12:32:21;;;;;;;1.38;0.70;;;;;;;;;;4907078;29;20057;-78
2022/07/09 12:34:48;;;;;;;3.05;0.63;;;;;;;;;;4907638;29;20060;-77
2022/07/09 12:37:14;;;;;;;2.33;0.75;;;;;;;;;;4891077;29;20200;-77
2022/07/09 12:39:41;;;;;;;2.83;0.70;;;;;;;;;;4888165;29;20091;-78
2022/07/09 12:42:17;;;;;;;2.70;1.00;;;;;;;;;;4888187;29;20048;-78
2022/07/09 12:44:44;;;;;;;1.17;0.60;;;;;;;;;;4921540;29;20063;-78
2022/07/09 12:47:11;;;;;;;1.63;0.60;;;;;;;;;;4893061;29;20497;-78
2022/07/09 12:49:38;;;;;;;1.92;0.70;;;;;;;;;;4907076;29;20060;-78
2022/07/09 12:52:05;;;;;;;2.90;0.75;;;;;;;;;;4905379;29;20088;-78
2022/07/09 12:54:32;;;;;;;2.75;0.90;;;;;;;;;;4890181;29;20056;-78
2022/07/09 12:56:59;;;;;;;1.45;0.70;;;;;;;;;;4904817;29;20135;-78
2022/07/09 12:59:36;;;;;;;1.30;0.68;;;;;;;;;;4876389;29;20497;-77
2022/07/09 13:02:04;;;;;;;2.83;0.70;;;;;;;;;;4882717;29;20088;-78
2022/07/09 13:04:31;;;;;;;3.38;0.90;;;;;;;;;;4881664;29;20054;-77
2022/07/09 13:06:58;;;;;;;1.30;0.63;;;;;;;;;;4873280;29;20079;-77
2022/07/09 13:09:24;;;;;;;0.40;0.40;;;;;;;;;;4901580;29;20457;-77
2022/07/09 13:11:51;;;;;;;1.13;0.47;;;;;;;;;;4881872;29;20095;-79
2022/07/09 13:14:18;;;;;;;0.85;0.70;;;;;;;;;;4879206;29;20089;-73
2022/07/09 13:16:45;;;;;;;3.03;0.60;;;;;;;;;;4900335;29;20052;-74
2022/07/09 13:19:31;;;;;;;0.63;0.50;;;;;;;;;;4903239;29;20140;-75
2022/07/09 13:21:58;;;;;;;1.50;0.57;;;;;;;;;;4893056;29;20119;-74
2022/07/09 13:24:25;;;;;;;1.95;0.47;;;;;;;;;;4909645;29;20522;-74
2022/07/09 13:26:52;;;;;;;1.05;0.60;;;;;;;;;;4905846;29;20164;-74
2022/07/09 13:29:20;;;;;;;1.52;0.60;;;;;;;;;;4894297;29;20523;-74
2022/07/09 13:31:46;;;;;;;2.30;0.70;;;;;;;;;;4895421;29;20139;-74
2022/07/09 13:34:17;;;;;;;4.05;0.80;;;;;;;;;;4895346;29;20139;-74
2022/07/09 13:36:43;;;;;;;1.05;0.60;;;;;;;;;;4892213;29;20576;-75
2022/07/09 13:39:10;;;;;;;0.95;0.60;;;;;;;;;;4886105;29;20108;-76
2022/07/09 13:41:37;;;;;;;0.90;0.80;;;;;;;;;;4885504;29;20143;-74
2022/07/09 13:44:05;;;;;;;2.88;1.10;;;;;;;;;;4885697;29;20057;-74
2022/07/09 13:46:33;;;;;;;2.67;2.45;;;;;;;;;;4909828;29;20056;-74
2022/07/09 13:49:00;;;;;;;19.13;17.25;;;;;;;;;;4896218;29;20077;-74
2022/07/09 13:51:27;;;;;;;2.45;1.73;;;;;;;;;;4879862;29;20088;-74
2022/07/09 13:53:53;;;;;;;6.97;4.10;;;;;;;;;;4864319;29;20128;-76
2022/07/09 13:56:20;;;;;;;86.55;66.13;;;;;;;;;;4873473;29;20057;-73
2022/07/09 13:58:47;;;;;;;4.63;3.13;;;;;;;;;;4894887;29;20048;-72
2022/07/09 14:01:14;;;;;;;11.30;8.85;;;;;;;;;;4892324;29;20057;-71
2022/07/09 14:03:42;;;;;;;4.18;2.60;;;;;;;;;;4876294;29;20434;-72
2022/07/09 14:06:10;;;;;;;1.70;1.02;;;;;;;;;;4861270;29;20057;-72
2022/07/09 14:08:57;;;;;;;2.97;1.10;;;;;;;;;;4876614;29;20136;-72
2022/07/09 14:11:23;;;;;;;2.80;1.13;;;;;;;;;;4876350;29;20107;-73
2022/07/09 14:13:52;;;;;;;2.85;2.00;;;;;;;;;;4882332;29;20053;-72
2022/07/09 14:16:19;;;;;;;2.78;1.27;;;;;;;;;;4895194;29;20573;-72
2022/07/09 14:18:46;;;;;;;1.33;1.08;;;;;;;;;;4879451;29;20056;-71
2022/07/09 14:21:13;;;;;;;3.60;1.77;;;;;;;;;;4895187;29;20095;-72
2022/07/09 14:23:39;;;;;;;2.38;1.50;;;;;;;;;;4894347;29;20127;-72
2022/07/09 14:26:06;;;;;;;2.10;1.38;;;;;;;;;;4894898;29;20048;-72
2022/07/09 14:28:33;;;;;;;2.72;1.40;;;;;;;;;;4894660;29;20075;-72
2022/07/09 14:31:00;;;;;;;5.85;3.90;;;;;;;;;;4891601;29;20052;-71
2022/07/09 14:33:27;;;;;;;2.60;1.30;;;;;;;;;;4876725;29;20069;-72
2022/07/09 14:35:54;;;;;;;13.48;11.00;;;;;;;;;;4887734;29;20080;-72
2022/07/09 14:38:21;;;;;;;9.23;7.63;;;;;;;;;;4879582;29;20475;-72
2022/07/09 14:40:48;;;;;;;69.68;57.75;;;;;;;;;;4880969;29;20100;-72
2022/07/09 14:43:15;;;;;;;22.77;10.68;;;;;;;;;;4894751;29;20060;-72
2022/07/09 14:45:42;;;;;;;1.48;1.38;;;;;;;;;;4894961;29;20135;-72
2022/07/09 14:48:08;;;;;;;1.52;1.20;;;;;;;;;;4894469;29;20056;-72
2022/07/09 14:50:35;;;;;;;2.17;1.85;;;;;;;;;;4891220;29;20141;-71